»·PEaware :: N17MA KSBD-KEMT

N17MA :: KSBD-KEMT

FLIGHT INFORMATION

Flight Status: Arrived
Operator: Privately registered:
United States
More flights under this callsign
Pilot: Diego M. (28112)
Aircraft: CESSNA 172 SKYHAWK
(C172)
More flights by this aircraft type
Origin: KSBD San Bernardino Intl
United States
Destination: KEMT El Monte
United States
More flights between these airports :: More routes between these airports
Route: +
File this flight plan on PilotEdge
Remarks: CAT7
Altitude:
(Current/Filed)
0ft
Speed:
(Current/Filed)
0kts
Departed: 25-Apr-20 01:37 PM
Arrived: 25-Apr-20 02:07 PM
Distance/Time
Traveled:
40nm/0:29
Distance/Time
To Go:
Arrived

Flight Plot

Page will automatically refresh every two minutes.


Map Options




Map Legend


Flown Route
Filed Route
Departure Airport
Arrival Airport
Navaid (VOR, NDB)
Fix

Horizontal Profiles

Position Reports

Time Latitude Longitude Heading Altitude Ground
Speed
25-Apr-20 13:27 34.102166 -117.224729 93 1161ft 0kts
25-Apr-20 13:28 34.102166 -117.224729 93 1161ft 0kts
25-Apr-20 13:29 34.102166 -117.224729 93 1161ft 0kts
25-Apr-20 13:30 34.101403 -117.224774 172 1161ft 8kts
25-Apr-20 13:31 34.100905 -117.223434 104 1161ft 0kts
25-Apr-20 13:32 34.101134 -117.221377 70 1161ft 14kts
25-Apr-20 13:33 34.100702 -117.219725 160 1161ft 0kts
25-Apr-20 13:34 34.100702 -117.219725 160 1161ft 0kts
25-Apr-20 13:35 34.100566 -117.219665 160 1161ft 3kts
25-Apr-20 13:36 34.097578 -117.227071 250 1185ft 77kts
25-Apr-20 13:37 34.090252 -117.251294 251 1471ft 75kts
25-Apr-20 13:38 34.082845 -117.274361 250 1671ft 70kts
25-Apr-20 13:39 34.077161 -117.296948 267 1960ft 76kts
25-Apr-20 13:40 34.079543 -117.322772 274 2446ft 76kts
25-Apr-20 13:41 34.081158 -117.347861 272 2937ft 73kts
25-Apr-20 13:42 34.082038 -117.373861 270 3446ft 83kts
25-Apr-20 13:43 34.082007 -117.403183 269 3952ft 89kts
25-Apr-20 13:44 34.081489 -117.434652 271 4362ft 97kts
25-Apr-20 13:45 34.081911 -117.469099 271 4497ft 113kts
25-Apr-20 13:46 34.082123 -117.506456 271 4495ft 114kts
25-Apr-20 13:47 34.082216 -117.544995 271 4494ft 115kts
25-Apr-20 13:48 34.082188 -117.583735 271 4493ft 115kts
25-Apr-20 13:49 34.082038 -117.622752 271 4494ft 116kts
25-Apr-20 13:50 34.081756 -117.661657 270 4494ft 115kts
25-Apr-20 13:51 34.081312 -117.700437 269 4498ft 114kts
25-Apr-20 13:52 34.080690 -117.738721 269 4502ft 113kts
25-Apr-20 13:53 34.079988 -117.776715 268 4505ft 112kts
25-Apr-20 13:54 34.078250 -117.814262 247 4504ft 112kts
25-Apr-20 13:55 34.060567 -117.844821 233 4504ft 110kts
25-Apr-20 13:56 34.041381 -117.873712 233 4502ft 107kts
25-Apr-20 13:57 34.022533 -117.901739 233 4502ft 107kts
25-Apr-20 13:58 34.028784 -117.932640 301 4394ft 93kts
25-Apr-20 13:59 34.043056 -117.955457 305 3684ft 73kts
25-Apr-20 14:00 34.054515 -117.975886 303 2976ft 75kts
25-Apr-20 14:01 34.066225 -117.997229 302 2239ft 78kts
25-Apr-20 14:02 34.079518 -118.017853 347 1451ft 74kts
25-Apr-20 14:03 34.097922 -118.010060 31 1359ft 78kts
25-Apr-20 14:04 34.111112 -118.015922 266 1046ft 71kts
25-Apr-20 14:05 34.095166 -118.029530 207 450ft 64kts
25-Apr-20 14:06 34.085454 -118.034774 126 299ft 1kts
25-Apr-20 14:07 34.085385 -118.034601 111 299ft 0kts
25-Apr-20 14:08 34.085025 -118.034753 181 299ft 4kts
25-Apr-20 14:09 34.084538 -118.034124 40 299ft 0kts
25-Apr-20 14:10 34.084558 -118.034113 27 299ft 0kts
25-Apr-20 14:11 34.084558 -118.034113 27 299ft 0kts
25-Apr-20 14:12 34.084558 -118.034113 27 299ft 0kts
25-Apr-20 14:13 34.084558 -118.034113 27 299ft 0kts
25-Apr-20 14:14 34.084558 -118.034113 27 299ft 0kts
25-Apr-20 14:15 34.084558 -118.034113 27 299ft 0kts
25-Apr-20 14:16 34.084558 -118.034113 27 299ft 0kts

Navigation Log

Ident Type
Flight plan parsing failed, navigation log unavailable